Time;durP1;ratioP1;P1;durP2;ratioP2;P2;SDS_P1;SDS_P2;PMS_P1;PMS_P2;Temp;Humidity;BMP_temperature;BMP_pressure;BME280_temperature;BME280_humidity;BME280_pressure;Samples;Min_cycle;Max_cycle;Signal;HPM_P1;HPM_P2
2021/08/27 00:01:14;;;;;;;7.25;1.58;;;;;;;14.60;79.63;100233.25;6261018;22;20079;-82
2021/08/27 00:03:41;;;;;;;6.05;1.50;;;;;;;14.58;79.78;100238.69;6260888;23;20046;-82
2021/08/27 00:06:08;;;;;;;5.10;1.45;;;;;;;14.54;79.90;100247.81;6260216;22;20050;-81
2021/08/27 00:08:34;;;;;;;7.45;1.30;;;;;;;14.49;79.97;100247.25;6257420;22;20054;-82
2021/08/27 00:11:03;;;;;;;5.93;1.70;;;;;;;14.49;79.74;100243.75;6255728;22;20127;-82
2021/08/27 00:13:29;;;;;;;4.68;1.50;;;;;;;14.43;79.48;100237.03;6258531;22;20057;-80
2021/08/27 00:15:56;;;;;;;5.93;1.80;;;;;;;14.41;79.58;100238.94;6265884;23;20080;-80
2021/08/27 00:18:25;;;;;;;4.28;1.58;;;;;;;14.41;79.28;100246.06;6267422;22;20024;-81
2021/08/27 00:20:52;;;;;;;3.58;1.65;;;;;;;14.42;78.97;100239.78;6262511;22;20513;-80
2021/08/27 00:23:20;;;;;;;3.20;1.38;;;;;;;14.39;79.23;100240.81;6253586;22;20080;-80
2021/08/27 00:25:46;;;;;;;4.28;1.55;;;;;;;14.35;78.68;100240.13;6252676;22;20087;-80
2021/08/27 00:28:13;;;;;;;5.38;1.30;;;;;;;14.33;79.13;100234.03;6252880;22;20035;-81
2021/08/27 00:30:47;;;;;;;4.63;1.50;;;;;;;14.32;79.37;100239.50;6251905;23;20024;-81
2021/08/27 00:33:14;;;;;;;3.30;1.50;;;;;;;14.30;79.28;100241.41;6252210;22;20024;-81
2021/08/27 00:35:41;;;;;;;3.50;1.20;;;;;;;14.27;79.94;100241.59;6253279;22;20102;-80
2021/08/27 00:38:14;;;;;;;5.85;1.38;;;;;;;14.26;79.30;100245.22;6253401;22;20074;-80
2021/08/27 00:40:43;;;;;;;2.55;1.50;;;;;;;14.25;79.29;100240.84;6256402;23;20031;-79
2021/08/27 00:43:12;;;;;;;5.45;1.50;;;;;;;14.26;79.22;100245.22;6266953;22;20044;-78
2021/08/27 00:45:46;;;;;;;4.25;1.25;;;;;;;14.24;79.26;100241.78;6269536;22;20055;-79
2021/08/27 00:48:14;;;;;;;3.00;1.20;;;;;;;14.22;79.76;100239.22;6268247;22;20028;-81
2021/08/27 00:50:41;;;;;;;2.95;1.27;;;;;;;14.22;79.70;100238.38;6268427;22;20023;-79
2021/08/27 00:53:08;;;;;;;2.50;1.33;;;;;;;14.22;79.74;100238.38;6262774;22;20032;-80
2021/08/27 00:55:35;;;;;;;3.78;1.15;;;;;;;14.20;79.90;100238.47;6252754;23;20016;-80
2021/08/27 00:58:03;;;;;;;4.45;1.55;;;;;;;14.23;79.17;100243.59;6253021;22;20027;-80
2021/08/27 01:00:31;;;;;;;5.15;1.40;;;;;;;14.25;79.39;100238.19;6253272;22;20026;-80
2021/08/27 01:02:59;;;;;;;2.92;1.33;;;;;;;14.25;79.70;100241.69;6252640;22;20087;-80
2021/08/27 01:05:30;;;;;;;4.63;1.38;;;;;;;14.26;79.94;100238.09;6253411;22;20026;-80
2021/08/27 01:08:20;;;;;;;4.10;1.33;;;;;;;14.23;79.11;100240.94;6250513;22;20020;-81
2021/08/27 01:10:53;;;;;;;2.45;1.35;;;;;;;14.19;79.45;100242.06;6251681;22;20031;-80
2021/08/27 01:13:29;;;;;;;3.10;1.20;;;;;;;14.17;79.20;100236.00;6252373;23;20020;-80
2021/08/27 01:16:21;;;;;;;4.43;1.50;;;;;;;14.12;79.49;100242.59;6252853;22;20111;-81
2021/08/27 01:19:00;;;;;;;5.15;1.35;;;;;;;14.10;79.96;100241.81;6250688;23;20066;-81
2021/08/27 01:21:57;;;;;;;4.00;1.48;;;;;;;14.07;80.05;100240.22;6253099;22;20055;-81
2021/08/27 01:24:29;;;;;;;3.40;1.30;;;;;;;14.03;80.02;100244.88;6252790;22;20094;-81
2021/08/27 01:26:58;;;;;;;3.38;1.58;;;;;;;14.01;80.26;100236.13;6251302;22;20028;-81
2021/08/27 01:30:07;;;;;;;3.22;1.60;;;;;;;14.04;80.24;100251.03;6252182;22;20079;-81
2021/08/27 01:33:01;;;;;;;3.78;1.73;;;;;;;14.04;80.27;100251.91;6218636;23;20107;-80
2021/08/27 01:35:31;;;;;;;4.57;1.90;;;;;;;14.11;80.17;100262.19;6253440;22;20027;-80
2021/08/27 01:38:01;;;;;;;4.13;1.52;;;;;;;14.13;80.16;100253.16;6252149;22;20013;-81
2021/08/27 01:40:30;;;;;;;5.20;1.48;;;;;;;14.16;79.96;100260.09;6252601;22;20063;-81
2021/08/27 01:42:58;;;;;;;4.35;1.50;;;;;;;14.19;80.23;100266.03;6251724;22;20024;-81
2021/08/27 01:45:25;;;;;;;2.72;1.55;;;;;;;14.21;79.88;100255.31;6251592;22;20401;-81
2021/08/27 01:47:52;;;;;;;5.32;1.70;;;;;;;14.19;79.38;100260.72;6251458;22;20070;-81
2021/08/27 01:50:21;;;;;;;2.85;1.27;;;;;;;14.21;79.35;100272.13;6251294;22;20107;-82
2021/08/27 01:52:49;;;;;;;2.90;1.63;;;;;;;14.22;78.71;100270.31;6251992;23;20034;-80
2021/08/27 01:55:19;;;;;;;4.35;1.55;;;;;;;14.23;78.37;100282.69;6256976;22;20022;-80
2021/08/27 01:57:48;;;;;;;3.70;1.50;;;;;;;14.22;78.28;100279.16;6259755;22;20012;-82
2021/08/27 02:00:16;;;;;;;5.95;1.70;;;;;;;14.22;78.52;100276.50;6254166;22;20019;-81
2021/08/27 02:02:44;;;;;;;4.93;1.55;;;;;;;14.25;78.17;100284.31;6255755;22;20027;-82
2021/08/27 02:05:12;;;;;;;6.63;1.70;;;;;;;14.24;78.08;100274.59;6253778;22;20020;-82
2021/08/27 02:07:39;;;;;;;3.28;1.58;;;;;;;14.24;77.86;100276.41;6255641;22;20050;-82
2021/08/27 02:10:07;;;;;;;2.50;1.60;;;;;;;14.19;77.50;100271.38;6254876;22;20028;-82
2021/08/27 02:12:34;;;;;;;3.65;1.45;;;;;;;14.16;77.99;100273.41;6255414;22;20063;-81
2021/08/27 02:15:02;;;;;;;3.38;1.77;;;;;;;14.15;77.76;100283.19;6253268;22;20478;-82
2021/08/27 02:17:30;;;;;;;3.10;1.77;;;;;;;14.16;77.70;100282.25;6254348;22;20046;-82
2021/08/27 02:19:58;;;;;;;4.57;1.70;;;;;;;14.15;78.12;100285.84;6255923;22;20075;-82
2021/08/27 02:22:29;;;;;;;4.15;1.63;;;;;;;14.18;77.92;100277.66;6255634;22;20099;-82
2021/08/27 02:25:01;;;;;;;2.10;1.35;;;;;;;14.21;77.89;100279.28;6253499;23;20023;-82
2021/08/27 02:27:31;;;;;;;6.10;1.67;;;;;;;14.25;77.52;100281.66;6254858;22;20103;-83
2021/08/27 02:30:01;;;;;;;3.38;1.70;;;;;;;14.27;76.63;100271.75;6257173;22;20031;-82
2021/08/27 02:32:28;;;;;;;6.25;1.60;;;;;;;14.27;76.38;100281.56;6259335;22;20038;-81
2021/08/27 02:35:00;;;;;;;3.63;1.70;;;;;;;14.26;77.58;100262.06;6261174;22;20031;-81
2021/08/27 02:37:31;;;;;;;3.00;1.30;;;;;;;14.32;77.62;100271.47;6259579;23;20051;-81
2021/08/27 02:39:57;;;;;;;4.38;1.70;;;;;;;14.37;78.26;100270.19;6269572;22;20068;-81
2021/08/27 02:42:27;;;;;;;3.42;1.50;;;;;;;14.38;78.53;100276.38;6266941;23;20047;-81
2021/08/27 02:44:55;;;;;;;4.78;1.92;;;;;;;14.40;78.54;100269.19;6264999;22;20036;-80
2021/08/27 02:47:21;;;;;;;3.58;1.60;;;;;;;14.41;78.90;100273.56;6271025;22;20054;-80
2021/08/27 02:49:48;;;;;;;2.92;1.70;;;;;;;14.35;79.17;100272.09;6270154;22;20040;-80
2021/08/27 02:52:22;;;;;;;4.72;2.17;;;;;;;14.34;79.88;100269.53;6270547;22;20112;-81
2021/08/27 02:54:57;;;;;;;4.10;1.50;;;;;;;14.34;80.24;100266.88;6266608;23;20031;-81
2021/08/27 02:57:26;;;;;;;4.25;1.80;;;;;;;14.27;80.28;100277.09;6273225;22;20035;-82
2021/08/27 02:59:58;;;;;;;2.00;1.60;;;;;;;14.22;80.27;100273.84;6271614;22;20020;-82
2021/08/27 03:02:27;;;;;;;4.20;1.90;;;;;;;14.23;80.27;100274.72;6259921;22;20020;-82
2021/08/27 03:05:07;;;;;;;4.68;1.90;;;;;;;14.21;79.99;100280.13;6257344;22;20369;-81
2021/08/27 03:07:37;;;;;;;2.63;1.70;;;;;;;14.19;80.03;100274.03;6256139;22;20017;-82
2021/08/27 03:10:23;;;;;;;2.87;1.90;;;;;;;14.20;79.69;100286.41;6256810;22;20054;-82
2021/08/27 03:13:13;;;;;;;2.58;1.65;;;;;;;14.14;79.52;100284.16;6257804;22;20463;-81
2021/08/27 03:16:16;;;;;;;4.93;1.65;;;;;;;14.08;79.84;100284.53;6258258;22;20052;-81
2021/08/27 03:18:45;;;;;;;1.88;1.30;;;;;;;14.04;80.21;100288.31;6166172;23;20021;-82
2021/08/27 03:21:20;;;;;;;2.80;1.55;;;;;;;13.98;80.25;100278.06;6244589;22;20352;-81
2021/08/27 03:23:49;;;;;;;4.45;1.90;;;;;;;13.97;80.06;100292.34;6262391;22;20047;-81
2021/08/27 03:26:24;;;;;;;5.32;1.80;;;;;;;13.97;79.87;100292.34;6272135;22;20088;-81
2021/08/27 03:28:59;;;;;;;5.45;1.60;;;;;;;13.94;79.37;100280.06;6273561;22;20019;-80
2021/08/27 03:31:28;;;;;;;4.07;1.40;;;;;;;13.93;78.96;100277.50;6273951;22;20008;-80
2021/08/27 03:33:58;;;;;;;2.72;1.50;;;;;;;13.90;79.26;100277.69;6272693;22;20063;-81
2021/08/27 03:36:29;;;;;;;4.88;1.42;;;;;;;13.88;79.32;100282.25;6271910;22;20004;-80
2021/08/27 03:38:57;;;;;;;6.70;1.70;;;;;;;13.84;79.41;100278.09;6263342;22;20446;-81
2021/08/27 03:41:27;;;;;;;5.05;1.70;;;;;;;13.81;79.22;100275.63;6258387;22;20059;-82
2021/08/27 03:43:55;;;;;;;5.30;1.90;;;;;;;13.76;80.14;100293.66;6259924;22;20060;-81
2021/08/27 03:46:24;;;;;;;2.50;1.60;;;;;;;13.67;80.61;100285.31;6264253;22;20012;-80
2021/08/27 03:48:52;;;;;;;5.85;1.65;;;;;;;13.63;80.87;100285.59;6267129;22;20095;-81
2021/08/27 03:51:20;;;;;;;8.65;2.25;;;;;;;13.61;81.22;100291.00;6268057;22;20068;-79
2021/08/27 03:53:54;;;;;;;3.78;1.75;;;;;;;13.61;81.44;100282.16;6272377;22;20028;-81
2021/08/27 03:56:27;;;;;;;3.53;1.65;;;;;;;13.60;81.45;100289.28;6272391;22;20020;-80
2021/08/27 03:58:55;;;;;;;4.57;1.90;;;;;;;13.58;81.40;100285.84;6272355;22;20031;-81
2021/08/27 04:01:22;;;;;;;4.82;1.98;;;;;;;13.61;81.62;100292.78;6273063;22;20071;-79
2021/08/27 04:03:49;;;;;;;6.35;1.45;;;;;;;13.59;80.93;100284.91;6272377;22;20050;-79
2021/08/27 04:06:16;;;;;;;3.90;1.50;;;;;;;13.63;80.58;100297.09;6267093;22;20048;-81
2021/08/27 04:08:43;;;;;;;3.50;1.67;;;;;;;13.66;80.33;100288.91;6266923;22;20068;-81
2021/08/27 04:11:12;;;;;;;4.25;1.40;;;;;;;13.66;79.81;100286.25;6269305;22;20043;-81
2021/08/27 04:13:39;;;;;;;5.07;1.75;;;;;;;13.67;80.07;100280.00;6272785;22;20137;-80
2021/08/27 04:16:06;;;;;;;4.72;1.52;;;;;;;13.72;79.43;100286.81;6274448;22;20012;-80
2021/08/27 04:18:33;;;;;;;2.42;1.40;;;;;;;13.68;78.65;100275.53;6273888;22;20051;-79
2021/08/27 04:21:00;;;;;;;5.30;1.80;;;;;;;13.69;78.83;100287.88;6273472;22;20012;-78
2021/08/27 04:23:27;;;;;;;4.70;1.60;;;;;;;13.68;79.15;100281.69;6273308;22;20008;-80
2021/08/27 04:25:54;;;;;;;4.90;1.40;;;;;;;13.67;79.36;100277.31;6273547;22;20008;-81
2021/08/27 04:28:21;;;;;;;6.78;1.77;;;;;;;13.72;79.46;100277.03;6273553;22;20031;-80
2021/08/27 04:30:48;;;;;;;6.80;1.80;;;;;;;13.76;79.86;100267.91;6274245;22;20019;-80
2021/08/27 04:33:14;;;;;;;3.75;1.85;;;;;;;13.79;79.58;100283.69;6274062;22;20059;-80
2021/08/27 04:35:41;;;;;;;4.13;1.90;;;;;;;13.79;79.57;100277.50;6267349;22;20059;-80
2021/08/27 04:38:08;;;;;;;4.38;1.70;;;;;;;13.78;79.73;100279.31;6259071;22;20412;-82
2021/08/27 04:40:34;;;;;;;3.60;1.80;;;;;;;13.82;79.51;100283.50;6251632;22;20095;-82
2021/08/27 04:43:02;;;;;;;3.97;1.70;;;;;;;13.80;79.40;100285.41;6253487;22;20020;-81
2021/08/27 04:45:29;;;;;;;5.28;1.90;;;;;;;13.80;79.90;100287.22;6252305;22;20079;-82
2021/08/27 04:47:55;;;;;;;4.10;2.05;;;;;;;13.90;79.59;100291.84;6250963;22;20020;-81
2021/08/27 04:50:22;;;;;;;3.42;1.90;;;;;;;13.89;79.84;100289.28;6253504;22;20438;-81
2021/08/27 04:52:49;;;;;;;4.05;1.88;;;;;;;13.92;79.86;100291.75;6253030;22;20083;-81
2021/08/27 04:55:17;;;;;;;4.20;1.55;;;;;;;13.91;79.65;100292.72;6252621;22;20016;-81
2021/08/27 04:57:43;;;;;;;4.75;1.90;;;;;;;13.88;79.58;100299.06;6251631;22;20096;-81
2021/08/27 05:00:10;;;;;;;5.93;1.90;;;;;;;13.86;79.83;100300.13;6252788;22;20108;-81
2021/08/27 05:02:38;;;;;;;6.65;1.73;;;;;;;13.85;80.09;100298.44;6254123;22;20073;-81
2021/08/27 05:05:06;;;;;;;5.97;1.92;;;;;;;13.84;79.30;100318.00;6252277;22;20032;-82
2021/08/27 05:07:33;;;;;;;3.17;1.48;;;;;;;13.82;79.87;100309.25;6252317;22;20293;-81
2021/08/27 05:10:01;;;;;;;6.43;1.90;;;;;;;13.80;79.97;100308.50;6258026;22;20024;-81
2021/08/27 05:12:29;;;;;;;3.80;1.90;;;;;;;13.82;80.00;100320.75;6265317;22;20182;-81
2021/08/27 05:14:56;;;;;;;6.03;1.90;;;;;;;13.82;79.80;100311.94;6261712;23;20035;-81
2021/08/27 05:17:23;;;;;;;4.20;1.70;;;;;;;13.82;80.20;100311.94;6263121;22;20067;-79
2021/08/27 05:19:50;;;;;;;3.03;1.73;;;;;;;13.84;80.08;100315.34;6256991;22;20028;-81
2021/08/27 05:22:17;;;;;;;2.38;1.70;;;;;;;13.88;79.66;100314.19;6253948;22;20016;-81
2021/08/27 05:24:44;;;;;;;5.93;2.08;;;;;;;13.90;79.48;100322.94;6253800;22;20072;-81
2021/08/27 05:27:13;;;;;;;5.03;1.90;;;;;;;13.94;79.45;100324.47;6254834;22;20089;-82
2021/08/27 05:29:40;;;;;;;4.40;2.10;;;;;;;13.95;80.03;100316.38;6253826;22;20020;-81
2021/08/27 05:32:07;;;;;;;4.65;2.10;;;;;;;13.98;79.48;100326.84;6254328;22;20034;-80
2021/08/27 05:34:42;;;;;;;5.88;2.55;;;;;;;13.98;79.49;100320.69;6255292;22;20024;-81
2021/08/27 05:37:09;;;;;;;3.38;2.00;;;;;;;13.94;79.61;100314.69;6253925;22;20024;-80
2021/08/27 05:39:36;;;;;;;7.57;2.50;;;;;;;13.98;80.03;100320.69;6255035;22;20802;-81
2021/08/27 05:42:04;;;;;;;9.85;3.50;;;;;;;13.98;79.76;100318.00;6253650;22;20028;-81
2021/08/27 05:44:30;;;;;;;9.13;2.92;;;;;;;13.97;79.93;100314.50;6254104;22;20111;-81
2021/08/27 05:46:59;;;;;;;5.95;2.75;;;;;;;14.04;79.64;100325.59;6254400;22;20027;-81
2021/08/27 05:49:28;;;;;;;5.72;2.70;;;;;;;14.14;79.40;100324.09;6253184;22;20130;-82
2021/08/27 05:51:54;;;;;;;7.65;2.83;;;;;;;14.20;78.54;100326.34;6254102;22;20051;-81
2021/08/27 05:54:21;;;;;;;4.78;2.50;;;;;;;14.25;78.83;100334.91;6253622;22;20019;-80
2021/08/27 05:56:47;;;;;;;6.53;2.92;;;;;;;14.28;77.78;100328.53;6252499;22;20606;-81
2021/08/27 05:59:15;;;;;;;8.18;2.45;;;;;;;14.31;77.75;100331.03;6252424;22;20012;-80
2021/08/27 06:01:42;;;;;;;6.60;2.70;;;;;;;14.41;77.91;100333.97;6252976;22;20076;-81
2021/08/27 06:04:09;;;;;;;6.25;2.42;;;;;;;14.49;77.45;100342.31;6252703;22;20023;-80
2021/08/27 06:06:36;;;;;;;8.55;2.50;;;;;;;14.57;77.79;100348.88;6251799;22;20083;-80
2021/08/27 06:09:05;;;;;;;6.25;2.70;;;;;;;14.63;77.17;100345.84;6252803;22;20043;-81
2021/08/27 06:11:37;;;;;;;8.93;2.92;;;;;;;14.71;77.10;100340.00;6255161;22;20052;-81
2021/08/27 06:14:05;;;;;;;7.10;2.35;;;;;;;14.83;76.63;100349.84;6261560;22;20055;-79
2021/08/27 06:16:32;;;;;;;5.25;2.47;;;;;;;14.91;75.61;100358.22;6267489;22;20034;-78
2021/08/27 06:19:03;;;;;;;11.07;2.90;;;;;;;14.94;74.84;100354.50;6262813;22;20038;-79
2021/08/27 06:21:32;;;;;;;8.25;3.15;;;;;;;14.99;75.23;100358.56;6267314;22;20055;-82
2021/08/27 06:24:00;;;;;;;5.88;2.40;;;;;;;15.03;74.29;100345.88;6270796;22;20019;-82
2021/08/27 06:26:27;;;;;;;5.72;2.70;;;;;;;15.19;75.85;100343.06;6270854;22;20019;-82
2021/08/27 06:28:54;;;;;;;9.55;2.55;;;;;;;15.33;74.68;100345.66;6265202;22;20016;-80
2021/08/27 06:31:21;;;;;;;6.78;2.47;;;;;;;15.40;73.73;100347.81;6254265;22;20067;-80
2021/08/27 06:33:48;;;;;;;6.05;2.50;;;;;;;15.41;73.25;100343.34;6251362;22;20032;-81
2021/08/27 06:36:15;;;;;;;4.93;2.10;;;;;;;15.42;72.10;100340.53;6253633;22;20028;-80
2021/08/27 06:38:42;;;;;;;5.60;2.22;;;;;;;15.36;71.70;100329.44;6256435;22;20020;-83
2021/08/27 06:41:14;;;;;;;4.55;2.10;;;;;;;15.35;71.11;100335.72;6259407;22;20024;-80
2021/08/27 06:43:44;;;;;;;4.78;1.85;;;;;;;15.29;71.24;100320.13;6255463;22;20016;-80
2021/08/27 06:46:15;;;;;;;4.68;2.33;;;;;;;15.44;70.98;100343.09;6260630;22;20046;-79
2021/08/27 06:48:49;;;;;;;8.10;2.33;;;;;;;15.42;70.74;100332.53;6262320;22;20028;-80
2021/08/27 06:51:17;;;;;;;5.88;2.10;;;;;;;15.42;70.32;100329.03;6260114;22;20035;-80
2021/08/27 06:53:45;;;;;;;4.65;2.25;;;;;;;15.42;69.86;100332.53;6254500;22;20515;-80
2021/08/27 06:56:12;;;;;;;6.97;2.05;;;;;;;15.44;69.43;100343.97;6253663;23;20319;-80
2021/08/27 06:58:39;;;;;;;5.30;1.92;;;;;;;15.54;69.87;100346.88;6254867;22;20031;-80
2021/08/27 07:01:05;;;;;;;2.97;1.92;;;;;;;15.66;69.89;100350.53;6254580;22;20071;-80
2021/08/27 07:03:35;;;;;;;9.60;2.55;;;;;;;15.75;69.84;100352.56;6256374;22;20027;-80
2021/08/27 07:06:02;;;;;;;6.20;3.40;;;;;;;15.81;70.25;100345.97;6257063;22;20107;-79
2021/08/27 07:08:29;;;;;;;10.68;3.40;;;;;;;15.87;70.83;100346.41;6257129;22;20769;-81
2021/08/27 07:10:55;;;;;;;4.60;2.78;;;;;;;15.97;71.36;100346.59;6258124;22;20028;-81
2021/08/27 07:13:22;;;;;;;4.35;2.67;;;;;;;16.09;70.04;100356.41;6256024;22;20036;-81
2021/08/27 07:15:50;;;;;;;5.32;2.80;;;;;;;16.12;70.20;100359.75;6257319;22;20023;-81
2021/08/27 07:18:17;;;;;;;4.40;2.28;;;;;;;16.17;70.33;100348.75;6254654;23;20432;-81
2021/08/27 07:20:44;;;;;;;5.78;2.58;;;;;;;16.23;70.16;100348.28;6258057;22;20102;-81
2021/08/27 07:23:14;;;;;;;5.20;2.58;;;;;;;16.33;70.37;100359.19;6257949;22;20455;-82
2021/08/27 07:25:41;;;;;;;3.85;2.67;;;;;;;16.39;70.54;100359.59;6256805;22;20103;-81
2021/08/27 07:28:08;;;;;;;3.85;2.22;;;;;;;16.44;69.94;100359.25;6256995;22;20058;-82
2021/08/27 07:30:36;;;;;;;6.15;2.30;;;;;;;16.49;68.84;100362.47;6256710;22;20023;-82
2021/08/27 07:33:03;;;;;;;4.82;1.90;;;;;;;16.58;67.18;100363.63;6255802;22;20021;-82
2021/08/27 07:35:30;;;;;;;4.60;2.33;;;;;;;16.72;67.15;100366.16;6256275;22;20024;-81
2021/08/27 07:37:57;;;;;;;2.08;1.80;;;;;;;16.90;66.70;100358.63;6254860;22;20434;-82
2021/08/27 07:40:24;;;;;;;3.33;1.88;;;;;;;17.00;65.51;100360.50;6256423;22;20016;-81
2021/08/27 07:42:51;;;;;;;3.92;2.05;;;;;;;17.04;64.81;100361.97;6258455;22;20076;-82
2021/08/27 07:45:41;;;;;;;;;;;;;;;17.03;63.95;100373.66;6259865;23;20035;-81
2021/08/27 07:48:10;;;;;;;5.97;1.77;;;;;;;16.96;64.63;100374.22;6261096;22;19930;-81
2021/08/27 07:50:36;;;;;;;5.10;2.25;;;;;;;16.85;64.90;100377.69;6260914;22;20106;-81
2021/08/27 07:53:03;;;;;;;3.42;1.88;;;;;;;16.78;64.71;100373.75;6261083;22;20024;-81
2021/08/27 07:55:31;;;;;;;3.58;1.70;;;;;;;16.58;64.75;100368.97;6264782;22;20095;-80
2021/08/27 07:57:57;;;;;;;3.83;1.85;;;;;;;16.53;65.70;100368.47;6266466;22;20051;-80
2021/08/27 08:00:24;;;;;;;4.43;1.95;;;;;;;16.50;65.46;100372.19;6262759;22;20035;-81
2021/08/27 08:02:52;;;;;;;5.55;1.90;;;;;;;16.48;65.93;100374.13;6260467;22;20036;-81
2021/08/27 08:05:19;;;;;;;3.20;2.00;;;;;;;16.48;66.54;100383.00;6256762;22;20024;-82
2021/08/27 08:07:46;;;;;;;6.70;2.13;;;;;;;16.52;67.09;100383.66;6256729;22;20091;-82
2021/08/27 08:10:12;;;;;;;5.13;2.28;;;;;;;16.54;67.99;100389.69;6259451;22;20075;-81
2021/08/27 08:12:39;;;;;;;5.57;2.30;;;;;;;16.54;68.24;100395.06;6258280;22;20027;-82
2021/08/27 08:15:07;;;;;;;5.97;2.13;;;;;;;16.55;68.76;100385.22;6252611;22;20098;-82
2021/08/27 08:17:35;;;;;;;7.05;2.40;;;;;;;16.58;68.70;100395.69;6253570;22;20051;-82
2021/08/27 08:20:03;;;;;;;5.68;2.20;;;;;;;16.56;68.53;100397.63;6253595;22;20019;-82
2021/08/27 08:22:30;;;;;;;5.38;2.40;;;;;;;16.60;68.72;100389.28;6253170;22;20024;-81
2021/08/27 08:24:57;;;;;;;6.45;2.05;;;;;;;16.71;69.05;100391.19;6254137;22;20020;-80
2021/08/27 08:27:26;;;;;;;3.05;1.88;;;;;;;16.77;68.32;100388.09;6254818;22;20091;-82
2021/08/27 08:29:54;;;;;;;2.95;1.90;;;;;;;16.83;68.07;100388.50;6253193;22;20028;-82
2021/08/27 08:32:20;;;;;;;2.83;2.17;;;;;;;17.00;67.77;100384.56;6252956;22;20024;-82
2021/08/27 08:34:47;;;;;;;2.83;1.80;;;;;;;17.16;67.28;100386.97;6253654;22;20026;-81
2021/08/27 08:37:15;;;;;;;3.58;1.90;;;;;;;17.32;65.31;100381.31;6254433;22;20020;-80
2021/08/27 08:39:42;;;;;;;4.95;2.28;;;;;;;17.34;65.33;100379.38;6258158;22;20027;-80
2021/08/27 08:42:09;;;;;;;4.38;1.88;;;;;;;17.38;65.59;100367.50;6258561;22;20028;-81
2021/08/27 08:44:36;;;;;;;3.28;2.00;;;;;;;17.38;65.28;100367.50;6251108;22;20082;-81
2021/08/27 08:47:07;;;;;;;4.20;2.08;;;;;;;17.48;65.55;100369.34;6251222;22;20552;-81
2021/08/27 08:49:36;;;;;;;4.90;2.30;;;;;;;17.58;63.85;100372.19;6255345;22;20016;-81
2021/08/27 08:52:04;;;;;;;4.65;1.88;;;;;;;17.64;63.51;100370.88;6262692;22;20051;-81
2021/08/27 08:54:31;;;;;;;3.30;1.95;;;;;;;17.70;62.85;100373.09;6258013;22;20098;-81
2021/08/27 08:56:58;;;;;;;2.92;1.33;;;;;;;17.79;61.94;100381.28;6253767;22;20095;-81
2021/08/27 08:59:26;;;;;;;3.47;1.63;;;;;;;17.91;61.40;100378.63;6255944;22;20022;-80
2021/08/27 09:01:52;;;;;;;5.68;1.85;;;;;;;18.08;60.90;100387.06;6262041;22;20028;-81
2021/08/27 09:04:24;;;;;;;2.72;1.63;;;;;;;18.14;60.03;100380.34;6263211;22;20055;-82
2021/08/27 09:06:53;;;;;;;3.55;1.50;;;;;;;18.24;60.54;100376.00;6271618;22;20012;-80
2021/08/27 09:09:31;;;;;;;2.88;1.48;;;;;;;18.56;59.03;100382.34;6265789;22;20051;-81
2021/08/27 09:12:43;;;;;;;4.35;2.20;;;;;;;18.76;58.80;100377.19;6225492;22;20022;-82
2021/08/27 09:15:13;;;;;;;3.83;1.98;;;;;;;18.98;59.07;100374.47;6264719;22;20047;-82
2021/08/27 09:17:48;;;;;;;4.63;2.53;;;;;;;19.06;58.80;100374.69;6266071;22;20046;-82
2021/08/27 09:20:21;;;;;;;3.42;1.95;;;;;;;19.02;57.46;100383.13;6270468;22;20048;-81
2021/08/27 09:23:07;;;;;;;5.68;2.55;;;;;;;18.92;58.44;100377.66;6270576;22;20019;-81
2021/08/27 09:25:36;;;;;;;3.53;2.00;;;;;;;18.90;58.12;100383.13;6269077;22;20039;-80
2021/08/27 09:28:17;;;;;;;4.13;2.20;;;;;;;18.77;57.83;100379.75;6270802;22;20023;-80
2021/08/27 09:30:54;;;;;;;5.85;2.10;;;;;;;18.68;58.25;100382.34;6269505;22;20020;-80
2021/08/27 09:33:36;;;;;;;2.55;2.20;;;;;;;18.63;59.60;100379.16;6268589;23;20023;-80
2021/08/27 09:36:09;;;;;;;6.47;3.45;;;;;;;18.50;59.48;100373.91;6268017;22;20010;-79
2021/08/27 09:38:38;;;;;;;6.45;2.30;;;;;;;18.40;59.72;100376.50;6265870;22;20024;-79
2021/08/27 09:41:12;;;;;;;5.97;2.60;;;;;;;18.25;59.98;100383.06;6271139;22;20008;-79
2021/08/27 09:43:44;;;;;;;5.97;3.05;;;;;;;18.03;60.39;100377.69;6271968;22;20008;-79
2021/08/27 09:46:32;;;;;;;4.28;2.85;;;;;;;17.84;61.37;100384.47;6268118;22;20030;-81
2021/08/27 09:49:02;;;;;;;5.70;2.80;;;;;;;17.74;61.24;100378.13;6259882;22;20034;-82
2021/08/27 09:51:41;;;;;;;4.47;2.72;;;;;;;17.64;62.05;100384.28;6257681;22;20051;-81
2021/08/27 09:54:22;;;;;;;6.53;2.92;;;;;;;17.64;62.15;100382.44;6256772;22;20114;-82
2021/08/27 09:56:53;;;;;;;7.65;2.55;;;;;;;17.65;62.75;100378.81;6258533;22;20093;-82
2021/08/27 09:59:31;;;;;;;5.57;3.38;;;;;;;17.61;63.02;100388.03;6256999;22;20016;-82
2021/08/27 10:01:58;;;;;;;5.40;2.80;;;;;;;17.57;62.54;100385.69;6258452;22;20095;-81
2021/08/27 10:04:27;;;;;;;4.53;2.90;;;;;;;17.51;62.73;100390.53;6257816;22;20374;-82
2021/08/27 10:06:53;;;;;;;5.32;2.83;;;;;;;17.45;62.63;100388.34;6259411;23;20028;-82
2021/08/27 10:09:22;;;;;;;7.18;3.45;;;;;;;17.49;62.69;100391.63;6263118;22;20020;-82
2021/08/27 10:11:56;;;;;;;4.57;3.20;;;;;;;17.51;62.93;100377.16;6262620;22;20035;-82
2021/08/27 10:14:24;;;;;;;6.22;3.00;;;;;;;17.53;62.84;100383.25;6262437;22;20027;-80
2021/08/27 10:16:54;;;;;;;4.90;2.97;;;;;;;17.64;62.38;100374.41;6258685;22;20023;-81
2021/08/27 10:19:21;;;;;;;6.70;3.60;;;;;;;17.74;61.66;100375.44;6260054;22;20031;-82
2021/08/27 10:21:51;;;;;;;6.32;3.70;;;;;;;17.85;61.37;100370.09;6262457;22;20055;-82
2021/08/27 10:24:18;;;;;;;9.23;4.20;;;;;;;18.03;61.21;100366.97;6260875;22;20031;-80
2021/08/27 10:26:46;;;;;;;5.88;4.00;;;;;;;18.13;61.22;100368.78;6261683;23;20048;-81
2021/08/27 10:29:13;;;;;;;6.38;4.00;;;;;;;18.10;60.55;100369.03;6265273;22;20062;-81
2021/08/27 10:31:46;;;;;;;6.60;4.10;;;;;;;17.89;61.13;100370.72;6263794;22;20026;-82
2021/08/27 10:34:17;;;;;;;6.75;4.63;;;;;;;17.62;62.10;100365.63;6263829;22;20012;-80
2021/08/27 10:36:47;;;;;;;7.40;4.30;;;;;;;17.49;63.04;100370.19;6272145;22;20016;-81
2021/08/27 10:39:34;;;;;;;6.35;4.20;;;;;;;17.42;62.56;100375.19;6271719;22;20015;-82
2021/08/27 10:42:02;;;;;;;6.75;4.32;;;;;;;17.55;62.91;100367.06;6263200;22;20075;-83
2021/08/27 10:44:55;;;;;;;9.43;4.40;;;;;;;17.66;62.28;100359.09;6262901;22;20064;-83
2021/08/27 10:47:24;;;;;;;8.13;4.50;;;;;;;17.72;62.00;100357.78;6260007;22;20016;-82
2021/08/27 10:49:53;;;;;;;5.45;4.28;;;;;;;17.87;62.35;100359.25;6258372;22;20094;-82
2021/08/27 10:52:29;;;;;;;4.68;4.25;;;;;;;18.14;61.45;100361.59;6258880;22;20040;-82
2021/08/27 10:55:03;;;;;;;6.13;4.57;;;;;;;18.38;59.32;100362.34;6259748;23;20035;-82
2021/08/27 10:57:49;;;;;;;7.65;4.60;;;;;;;18.58;59.79;100360.72;6258686;22;20030;-80
2021/08/27 11:00:30;;;;;;;5.35;4.15;;;;;;;18.75;59.14;100365.63;6265535;22;20086;-80
2021/08/27 11:03:05;;;;;;;6.30;4.10;;;;;;;19.00;57.92;100355.56;6266094;22;20009;-82
2021/08/27 11:05:35;;;;;;;7.68;4.32;;;;;;;19.13;58.36;100341.00;6263584;22;20004;-80
2021/08/27 11:08:05;;;;;;;7.45;4.65;;;;;;;19.36;56.91;100344.44;6264080;22;20024;-82
2021/08/27 11:10:35;;;;;;;6.72;4.63;;;;;;;19.42;56.67;100337.69;6263448;22;20099;-81
2021/08/27 11:13:08;;;;;;;11.18;5.45;;;;;;;19.37;56.87;100330.03;6265129;22;20044;-82
2021/08/27 11:15:38;;;;;;;5.32;4.60;;;;;;;19.49;57.32;100331.72;6260062;22;20017;-82
2021/08/27 11:18:24;;;;;;;6.88;4.57;;;;;;;19.64;56.69;100337.63;6255951;22;20020;-80
2021/08/27 11:21:40;;;;;;;5.90;4.60;;;;;;;19.65;55.68;100336.63;6261817;22;20048;-83
2021/08/27 11:24:22;;;;;;;10.57;5.07;;;;;;;19.57;55.40;100339.13;6251208;22;20031;-83
2021/08/27 11:27:03;;;;;;;5.47;4.40;;;;;;;19.38;55.13;100320.13;6265032;22;20012;-81
2021/08/27 11:29:53;;;;;;;6.72;4.53;;;;;;;19.35;55.33;100337.38;6138896;23;20109;-81
2021/08/27 11:32:34;;;;;;;9.68;4.72;;;;;;;19.35;55.53;100332.00;6199133;23;20080;-79
2021/08/27 11:35:05;;;;;;;8.45;5.00;;;;;;;19.62;54.63;100334.22;6204088;23;20032;-81
2021/08/27 11:37:39;;;;;;;7.20;5.30;;;;;;;19.88;53.43;100319.38;6182299;23;20021;-83
2021/08/27 11:40:08;;;;;;;6.15;4.85;;;;;;;20.24;53.32;100317.13;6204825;23;20070;-82